Flight Track Log - Related Links

Times and Time Zones

All times are in EDT time to prevent confusion due to time zone crossing. See the N1149H flight status page for this flight to view local times or setup timezone preferences in your user account.

Time Position Orientation Groundspeed Altitude Reporting Facility
EDT Latitude Longitude Course Direction KTS MPH feet Rate Location/Type
Mon 12:13:07 PM 34.0000 -84.6500 161° South 122 140 2,700  Level Atlanta TRACON
Mon 12:14:07 PM 33.9833 -84.6333 140° Southeast 91 105 3,500 700 Climbing Atlanta TRACON
Mon 12:15:07 PM 33.9667 -84.6167 140° Southeast 100 115 4,100 600 Climbing Atlanta TRACON
Mon 12:16:07 PM 33.9500 -84.5833 121° Southeast 108 124 4,700 450 Climbing Atlanta TRACON
Mon 12:17:07 PM 33.9167 -84.5667 157° South 122 140 5,000 150 Climbing Atlanta TRACON
Mon 12:18:00 PM 33.7972 -84.4419 161° South  Level Estimated
Mon 12:18:07 PM 33.9000 -84.5333 121° Southeast 154 177 5,000  Level Atlanta TRACON
Mon 12:19:07 PM 33.8500 -84.5000 151° Southeast 156 180 5,000  Level Atlanta TRACON
Mon 12:20:07 PM 33.8167 -84.5000 180° South 148 170 5,000  Level Atlanta TRACON
Mon 12:21:07 PM 33.7667 -84.5000 180° South 147 169 5,000  Level Atlanta TRACON
Mon 12:22:07 PM 33.7333 -84.5000 180° South 148 170 5,000  Level Atlanta TRACON
Mon 12:23:07 PM 33.6833 -84.5000 180° South 148 170 5,000  Level Atlanta TRACON
Mon 12:24:07 PM 33.6500 -84.4833 157° South 146 168 5,000  Level Atlanta TRACON
Mon 12:25:07 PM 33.6167 -84.4833 180° South 146 168 5,000  Level Atlanta TRACON
Mon 12:26:08 PM 33.5667 -84.4833 180° South 147 169 5,000  Level Atlanta TRACON
Mon 12:27:08 PM 33.5333 -84.4833 180° South 145 167 5,000  Level Atlanta TRACON
Mon 12:28:08 PM 33.4833 -84.4667 164° South 145 167 5,000  Level Atlanta TRACON
Mon 12:29:08 PM 33.4500 -84.4500 157° South 152 175 5,000  Level Atlanta TRACON
Mon 12:30:08 PM 33.4333 -84.4167 121° Southeast 152 175 5,000  Level Atlanta TRACON
Mon 12:31:08 PM 33.4000 -84.3833 140° Southeast 153 176 5,000  Level Atlanta TRACON
Mon 12:32:08 PM 33.3667 -84.3333 129° Southeast 154 177 5,000 50 Level Atlanta TRACON
Mon 12:33:08 PM 33.3333 -84.3000 140° Southeast 151 174 5,100 250 Climbing Atlanta TRACON
Mon 12:34:08 PM 33.3167 -84.2667 121° Southeast 133 153 5,500 450 Climbing Atlanta TRACON
Mon 12:35:08 PM 33.2833 -84.2333 140° Southeast 119 137 6,000 450 Climbing Atlanta TRACON
Mon 12:36:08 PM 33.2667 -84.2167 140° Southeast 113 130 6,400 400 Climbing Atlanta TRACON
Mon 12:37:08 PM 33.2500 -84.1833 121° Southeast 105 121 6,800 350 Climbing Atlanta TRACON
Mon 12:38:08 PM 33.2167 -84.1667 157° South 117 135 7,100 100 Climbing Atlanta TRACON
Mon 12:39:08 PM 33.1833 -84.1500 157° South 139 160 7,000 -50 Descending Atlanta TRACON
Mon 12:40:08 PM 33.1500 -84.1167 140° Southeast 154 177 7,000  Level Atlanta TRACON
Mon 12:41:09 PM 33.1167 -84.0833 140° Southeast 158 182 7,000  Level Atlanta TRACON
Mon 12:42:09 PM 33.0833 -84.0500 140° Southeast 158 182 7,000  Level Atlanta TRACON
Mon 12:43:09 PM 33.0333 -84.0333 164° South 156 180 7,000  Level Atlanta TRACON
Mon 12:44:09 PM 33.0000 -84.0000 140° Southeast 155 178 7,000  Level Atlanta TRACON
Mon 12:45:09 PM 32.9667 -83.9667 140° Southeast 155 178 7,000  Level Atlanta TRACON
Mon 12:46:09 PM 32.9333 -83.9333 140° Southeast 157 181 7,000  Level Atlanta TRACON
Mon 12:47:09 PM 32.9000 -83.9000 140° Southeast 156 180 7,000  Level Atlanta TRACON
Mon 12:48:09 PM 32.8667 -83.8667 140° Southeast 156 180 7,000  Level Atlanta TRACON
Mon 12:49:09 PM 32.8333 -83.8333 140° Southeast 156 180 7,000  Level Atlanta TRACON
Mon 12:50:09 PM 32.8167 -83.7833 112° Southeast 153 176 7,000  Level Atlanta TRACON
Mon 12:51:09 PM 32.7833 -83.7500 140° Southeast 155 178 7,000  Level Atlanta TRACON
Mon 12:52:09 PM 32.7667 -83.7167 121° Southeast 157 181 7,000  Level Atlanta TRACON
Mon 12:53:09 PM 32.7167 -83.6833 151° Southeast 146 168 7,000  Level Atlanta TRACON
Mon 12:54:09 PM 32.7000 -83.6667 140° Southeast 134 154 7,000  Level Atlanta TRACON
Mon 12:55:09 PM 32.6500 -83.6167 140° Southeast 146 168 7,000  Level Atlanta TRACON
Mon 12:56:09 PM 32.6167 -83.5833 140° Southeast 154 177 7,000 50 Level Atlanta TRACON
Mon 12:57:09 PM 32.5833 -83.5667 157° South 158 182 7,100  Climbing Atlanta TRACON
Mon 12:58:09 PM 32.5333 -83.5667 180° South 158 182 7,000 -50 Descending Atlanta TRACON
Mon 12:59:09 PM 32.4833 -83.5667 180° South 157 181 7,000  Level Atlanta TRACON
Mon 01:01:00 PM 32.4406 -83.5541 166° South  Level FlightAware Approximate
Mon 01:01:55 PM 32.3736 -83.5394 166° South 166 191 7,000  Level Jacksonville Center
Mon 01:02:55 PM 32.3297 -83.5317 171° South 161 185 7,000  Level Jacksonville Center
Mon 01:03:55 PM 32.2861 -83.5217 169° South 161 185 7,000  Level Jacksonville Center
Mon 01:04:55 PM 32.2422 -83.5142 172° South 161 185 7,000 50 Level Jacksonville Center
Mon 01:05:55 PM 32.1983 -83.5039 169° South 161 185 7,100  Climbing Jacksonville Center
Mon 01:06:55 PM 32.1672 -83.4669 135° Southeast 156 180 7,000 -50 Descending Jacksonville Center
Mon 01:07:55 PM 32.1467 -83.4225 119° Southeast 156 180 7,000  Level Jacksonville Center
Mon 01:08:55 PM 32.1197 -83.3831 129° Southeast 156 180 7,000  Level Jacksonville Center
Mon 01:09:55 PM 32.0883 -83.3461 135° Southeast 156 180 7,000  Level Jacksonville Center
Mon 01:10:55 PM 32.0572 -83.3044 131° Southeast 161 185 7,000  Level Jacksonville Center
Mon 01:11:55 PM 32.0303 -83.2700 133° Southeast 161 185 7,000  Level Jacksonville Center
Mon 01:12:55 PM 32.0011 -83.2331 133° Southeast 161 185 7,000  Level Jacksonville Center
Mon 01:13:55 PM 31.9700 -83.1939 133° Southeast 161 185 7,000  Level Jacksonville Center
Mon 01:14:55 PM 31.9428 -83.1544 129° Southeast 161 185 7,000  Level Jacksonville Center
Mon 01:15:55 PM 31.9136 -83.1153 131° Southeast 161 185 7,000  Level Jacksonville Center
Mon 01:16:55 PM 31.8844 -83.0736 129° Southeast 161 185 7,000  Level Jacksonville Center
Mon 01:17:55 PM 31.8533 -83.0344 133° Southeast 161 185 7,000  Level Jacksonville Center
Mon 01:18:55 PM 31.8283 -82.9928 125° Southeast 161 185 7,000  Level Jacksonville Center
Mon 01:19:55 PM 31.8200 -82.9414 101° East 154 177 7,000  Level Jacksonville Center
Mon 01:20:55 PM 31.8136 -82.8903 98° East 154 177 7,000  Level Jacksonville Center
Mon 01:21:55 PM 31.7950 -82.8436 115° Southeast 154 177 7,000 250 Level Jacksonville Center
Mon 01:22:55 PM 31.7719 -82.8069 126° Southeast 149 171 7,500 400 Climbing Jacksonville Center
Mon 01:23:55 PM 31.7553 -82.7728 120° Southeast 137 158 7,800 300 Climbing Jacksonville Center
Mon 01:24:55 PM 31.7281 -82.7386 133° Southeast 124 143 8,100 100 Climbing Jacksonville Center
Mon 01:25:55 PM 31.7008 -82.7044 133° Southeast 135 155 8,000  Descending Jacksonville Center
Mon 01:26:55 PM 31.6694 -82.6681 135° Southeast 146 168 8,100 50 Climbing Jacksonville Center
Mon 01:27:55 PM 31.6358 -82.6314 137° Southeast 156 180 8,100  Level Jacksonville Center
Mon 01:28:55 PM 31.6025 -82.5975 139° Southeast 161 185 8,100  Level Jacksonville Center
Mon 01:29:55 PM 31.5711 -82.5586 133° Southeast 161 185 8,100 -50 Level Jacksonville Center
Mon 01:30:55 PM 31.5417 -82.5219 133° Southeast 161 185 8,000 -50 Descending Jacksonville Center
Mon 01:31:55 PM 31.5083 -82.4881 139° Southeast 161 185 8,000 50 Level Jacksonville Center
Mon 01:32:55 PM 31.4706 -82.4589 147° Southeast 161 185 8,100  Climbing Jacksonville Center
Mon 01:33:55 PM 31.4328 -82.4347 151° Southeast 156 180 8,000 -50 Descending Jacksonville Center
Mon 01:34:55 PM 31.3972 -82.4083 148° Southeast 156 180 8,000  Level Jacksonville Center
Mon 01:35:55 PM 31.3594 -82.3744 143° Southeast 161 185 8,000  Level Jacksonville Center
Mon 01:36:55 PM 31.3261 -82.3478 146° Southeast 166 191 8,000  Level Jacksonville Center
Mon 01:37:55 PM 31.2925 -82.3139 139° Southeast 166 191 8,000  Level Jacksonville Center
Mon 01:38:55 PM 31.2569 -82.2825 143° Southeast 166 191 8,000  Level Jacksonville Center
Mon 01:39:55 PM 31.2233 -82.2489 139° Southeast 166 191 8,000  Level Jacksonville Center
Mon 01:40:55 PM 31.1875 -82.2175 143° Southeast 166 191 8,000  Level Jacksonville Center
Mon 01:41:55 PM 31.1519 -82.1861 143° Southeast 166 191 8,000 -59 Level Jacksonville Center
Mon 01:42:37 PM 31.1247 -82.1597 140° Southeast 162 186 7,900  Descending Jacksonville Center
Mon 01:42:55 PM 31.1164 -82.1550 154° Southeast 166 191 8,000  Climbing Jacksonville Center
Mon 01:43:32 PM 31.0931 -82.1333 142° Southeast 162 186 7,900  Descending Jacksonville Center
Mon 01:43:55 PM 31.0806 -82.1236 146° Southeast 166 191 8,000 98 Climbing Jacksonville Center
Mon 01:44:33 PM 31.0575 -82.0972 136° Southeast 162 186 8,000  Level Jacksonville Center
Mon 01:44:55 PM 31.0450 -82.0900 154° Southeast 166 191 8,000 -98 Level Jacksonville Center
Mon 01:45:34 PM 31.0217 -82.0683 141° Southeast 162 186 7,900  Descending Jacksonville Center
Mon 01:45:55 PM 31.0092 -82.0611 154° Southeast 166 191 8,000  Climbing Jacksonville Center
Mon 01:46:35 PM 30.9839 -82.0372 141° Southeast 163 188 7,900  Descending Jacksonville Center
Mon 01:46:55 PM 30.9714 -82.0300 154° Southeast 166 191 8,000  Climbing Jacksonville Center
Mon 01:47:35 PM 30.9419 -82.0086 148° Southeast 163 188 7,900  Descending Jacksonville Center
Mon 01:47:55 PM 30.9317 -82.0036 157° South 171 197 8,000  Climbing Jacksonville Center
Mon 01:48:36 PM 30.9022 -81.9822 148° Southeast 163 188 7,900  Descending Jacksonville Center
Mon 01:48:55 PM 30.8939 -81.9775 154° Southeast 165 190 8,000  Climbing Jacksonville Center
Mon 01:49:37 PM 30.8603 -81.9583 154° Southeast 161 185 7,900  Descending Jacksonville Center
Mon 01:49:55 PM 30.8519 -81.9536 154° Southeast 160 184 8,000  Climbing Jacksonville Center
Mon 01:50:38 PM 30.8203 -81.9369 156° South 162 186 7,900  Descending Jacksonville Center
Mon 01:50:55 PM 30.8119 -81.9300 144° Southeast 160 184 8,000  Climbing Jacksonville Center
Mon 01:51:39 PM 30.7847 -81.9133 152° Southeast 159 183 7,900  Descending Jacksonville Center
Mon 01:51:55 PM 30.7722 -81.9061 154° Southeast 160 184 8,000  Climbing Jacksonville Center
Mon 01:52:40 PM 30.7406 -81.8847 150° Southeast 159 183 7,900 -57 Descending Jacksonville Center
Mon 01:53:41 PM 30.7028 -81.8608 151° Southeast 157 181 7,900  Level Jacksonville Center
Mon 01:54:42 PM 30.6650 -81.8322 147° Southeast 158 182 7,900  Level Jacksonville Center
Mon 01:55:43 PM 30.6272 -81.8039 147° Southeast 160 184 7,900  Level Jacksonville Center
Mon 01:56:44 PM 30.5914 -81.7753 145° Southeast 157 181 7,900  Level Jacksonville Center
Mon 01:57:45 PM 30.5558 -81.7419 141° Southeast 156 180 7,900  Level Jacksonville Center
Mon 01:58:46 PM 30.5219 -81.7086 140° Southeast 159 183 7,900  Level Jacksonville Center
Mon 01:59:47 PM 30.4861 -81.6753 141° Southeast 158 182 7,900  Level Jacksonville Center
Mon 02:00:47 PM 30.4483 -81.6542 154° Southeast 144 166 7,900  Level Jacksonville Center
Mon 02:01:48 PM 30.4106 -81.6378 159° South 151 174 7,900  Level Jacksonville Center
Mon 02:02:49 PM 30.3667 -81.6214 162° South 156 180 7,900  Level Jacksonville Center
Mon 02:03:50 PM 30.3247 -81.6075 164° South 157 181 7,900  Level Jacksonville Center
Mon 02:04:51 PM 30.2808 -81.5914 162° South 158 182 7,900  Level Jacksonville Center
Mon 02:05:52 PM 30.2389 -81.5775 164° South 159 183 7,900  Level Jacksonville Center
Mon 02:06:53 PM 30.1947 -81.5586 160° South 161 185 7,900  Level Jacksonville Center
Mon 02:07:54 PM 30.1528 -81.5425 162° South 157 181 7,900  Level Jacksonville Center
Mon 02:08:55 PM 30.1108 -81.5264 162° South 158 182 7,900  Level Jacksonville Center
Mon 02:09:56 PM 30.0689 -81.5078 159° South 161 185 7,900  Level Jacksonville Center
Mon 02:10:57 PM 30.0250 -81.4892 160° South 154 177 7,900  Level Jacksonville Center
Mon 02:11:58 PM 29.9850 -81.4706 158° South 155 178 7,900  Level Jacksonville Center
Mon 02:13:09 PM 29.9389 -81.4450 154° Southeast 155 178 7,900  Level Jacksonville Center
Mon 02:14:09 PM 29.9011 -81.4261 157° South 156 180 7,900  Level Jacksonville Center
Mon 02:15:10 PM 29.8611 -81.4006 151° Southeast 155 178 7,900  Level Jacksonville Center
Mon 02:16:11 PM 29.8275 -81.3747 146° Southeast 153 176 7,900  Level Jacksonville Center
Mon 02:17:12 PM 29.7875 -81.3489 151° Southeast 153 176 7,900  Level Jacksonville Center
Mon 02:18:13 PM 29.7475 -81.3258 153° Southeast 155 178 7,900  Level Jacksonville Center
Mon 02:19:13 PM 29.7117 -81.2975 146° Southeast 157 181 7,900  Level Jacksonville Center
Mon 02:20:14 PM 29.6739 -81.2742 152° Southeast 157 181 7,900  Level Jacksonville Center
Mon 02:21:15 PM 29.6319 -81.2583 162° South 155 178 7,900  Level Jacksonville Center
Mon 02:22:16 PM 29.5919 -81.2397 158° South 156 180 7,900  Level Jacksonville Center
Mon 02:23:17 PM 29.5478 -81.2167 156° South 156 180 7,900  Level Jacksonville Center
Mon 02:24:17 PM 29.5100 -81.2006 160° South 155 178 7,900  Level Jacksonville Center
Mon 02:25:18 PM 29.4681 -81.1847 162° South 154 177 7,900  Level Jacksonville Center
Mon 02:26:19 PM 29.4261 -81.1711 164° South 155 178 7,900  Level Jacksonville Center
Mon 02:27:20 PM 29.3842 -81.1575 164° South 158 182 7,900  Level Jacksonville Center
Mon 02:28:21 PM 29.3422 -81.1417 162° South 157 181 7,900  Level Jacksonville Center
Mon 02:29:21 PM 29.3003 -81.1208 157° South 155 178 7,900  Level Jacksonville Center
Mon 02:30:22 PM 29.2581 -81.1028 160° South 157 181 7,900  Level Jacksonville Center
Mon 02:31:23 PM 29.2161 -81.0867 161° South 157 181 7,900  Level Jacksonville Center
Mon 02:33:14 PM 29.1500 -81.0500 154° Southeast 156 180 7,900  Level Orlando TRACON
Mon 02:34:19 PM 29.1000 -81.0333 164° South 157 181 7,900  Level Orlando TRACON
Mon 02:35:19 PM 29.0500 -81.0167 164° South 156 180 7,900  Level Orlando TRACON
Mon 02:36:19 PM 29.0167 -81.0000 156° South 154 177 7,900  Level Orlando TRACON
Mon 02:37:20 PM 28.9833 -80.9833 156° South 155 178 7,900  Level Orlando TRACON
Mon 02:38:14 PM 28.9333 -80.9667 164° South 158 182 7,900 -105 Level Orlando TRACON
Mon 02:39:14 PM 28.9000 -80.9500 156° South 162 186 7,700 -333 Descending Orlando TRACON
Mon 02:40:20 PM 28.8500 -80.9500 180° South 172 198 7,200 -550 Descending Orlando TRACON
Mon 02:41:14 PM 28.8000 -80.9500 180° South 182 209 6,600 -579 Descending Orlando TRACON
Mon 02:42:14 PM 28.7500 -80.9333 164° South 180 207 6,100 -595 Descending Orlando TRACON
Mon 02:43:15 PM 28.7000 -80.9167 164° South 177 204 5,400 -694 Descending Orlando TRACON
Mon 02:44:15 PM 28.6500 -80.9000 164° South 172 198 4,700 -571 Descending Orlando TRACON
Mon 02:45:21 PM 28.6000 -80.9000 180° South 172 198 4,200 -381 Descending Orlando TRACON
Mon 02:46:21 PM 28.5667 -80.8833 156° South 163 188 3,900 -105 Descending Orlando TRACON
Mon 02:47:15 PM 28.5167 -80.8667 164° South 150 173 4,000 53 Climbing Orlando TRACON
Mon 02:48:15 PM 28.4833 -80.8500 156° South 146 168 4,000  Level Orlando TRACON
Mon 02:49:15 PM 28.4500 -80.8500 180° South 154 177 4,000  Level Orlando TRACON
Mon 02:50:15 PM 28.4000 -80.8667 196° South 151 174 4,000  Level Orlando TRACON
Mon 02:51:15 PM 28.3500 -80.8667 180° South 155 178 4,000  Level Orlando TRACON
Mon 02:52:15 PM 28.3167 -80.8667 180° South 152 175 4,000  Level Orlando TRACON
Mon 02:53:15 PM 28.2667 -80.8833 196° South 155 178 4,000  Level Orlando TRACON
Mon 02:54:15 PM 28.2333 -80.8833 180° South 154 177 4,000  Level Orlando TRACON
Mon 02:55:15 PM 28.1833 -80.9000 196° South 158 182 4,000  Level Orlando TRACON
Mon 02:56:21 PM 28.1333 -80.9000 180° South 155 178 4,000 -50 Level Orlando TRACON
Mon 02:57:16 PM 28.1000 -80.9000 180° South 163 188 3,900 -150 Descending Orlando TRACON
Mon 02:58:21 PM 28.0500 -80.9167 196° South 143 165 3,700 -450 Descending Orlando TRACON
Mon 02:59:16 PM 28.0833 -80.9333 336° Northwest 157 181 3,000 -902 Descending Orlando TRACON
Mon 03:00:34 PM 28.1000 -80.9000 60° Northeast 147 169 1,700 -609 Descending Orlando TRACON
Mon 03:01:34 PM 28.1000 -80.8500 90° East 127 146 1,600 -50 Descending Orlando TRACON
Mon 03:02:34 PM 28.1000 -80.8167 90° East 121 139 1,600 -53 Level Orlando TRACON
Mon 03:03:28 PM 28.1000 -80.7833 90° East 129 148 1,500 -248 Descending Orlando TRACON
Mon 03:04:35 PM 28.1000 -80.7333 90° East 100 115 1,100 -397 Descending Orlando TRACON
Mon 03:05:29 PM 28.1000 -80.7167 90° East 104 120 700 -333 Descending Orlando TRACON
Mon 03:06:23 PM 28.1000 -80.6833 90° East 106 122 500 -222 Descending Orlando TRACON
Mon 03:08:00 PM 28.1028 -80.6453 86° East  Level Estimated
Mon 03:15:00 PM 28.1028 -80.6453 86° East  Level Estimated
Mon 03:16:00 PM 28.1028 -80.6453 86° East  Level Estimated
Mon 03:17:00 PM 28.1028 -80.6453 86° East  Level Estimated
Mon 03:18:00 PM 28.1028 -80.6453 86° East  Level Estimated

Login

Don't have an account? Register now (free) for customized features, flight alerts, and more!